createdAt,value
2018-05-06T07:29:59.811Z,99.90
2018-05-06T07:32:28.497Z,99.90
2018-05-06T07:34:56.981Z,99.90
2018-05-06T07:37:25.569Z,99.90
2018-05-06T07:39:54.072Z,99.90
2018-05-06T07:42:23.326Z,99.90
2018-05-06T07:44:51.833Z,99.90
2018-05-06T07:47:20.341Z,99.90
2018-05-06T08:32:10.693Z,99.90
2018-05-06T09:09:33.885Z,99.90
2018-05-06T09:12:02.425Z,99.90
2018-05-06T09:14:31.677Z,99.90
2018-05-06T09:17:00.590Z,99.90
2018-05-06T09:19:30.584Z,99.90
2018-05-06T09:39:25.494Z,99.90
2018-05-06T09:44:24.425Z,99.90
2018-05-06T09:46:53.785Z,99.90
2018-05-06T09:49:23.018Z,99.90
2018-05-06T09:51:51.620Z,99.90
2018-05-06T09:54:19.879Z,99.90
2018-05-06T09:56:48.427Z,99.90
2018-05-06T09:59:17.681Z,99.90
2018-05-06T10:01:46.210Z,99.90
2018-05-06T10:04:15.573Z,99.90
2018-05-06T10:06:44.170Z,99.90
2018-05-06T10:09:14.176Z,99.90
2018-05-06T10:11:42.665Z,99.90
2018-05-06T10:14:11.265Z,99.90
2018-05-06T10:16:39.852Z,99.90
2018-05-06T10:19:08.388Z,99.90
2018-05-06T10:21:36.652Z,99.90
2018-05-06T10:24:05.165Z,99.90
2018-05-06T10:26:33.728Z,99.90
2018-05-06T10:29:02.245Z,99.90
2018-05-06T10:31:30.761Z,99.90
2018-05-06T10:34:00.161Z,99.90
2018-05-06T10:36:29.069Z,99.90
2018-05-06T10:38:58.532Z,99.90
2018-05-06T10:41:27.108Z,99.90
2018-05-06T10:43:55.680Z,99.90
2018-05-06T10:46:24.348Z,99.90
2018-05-06T10:48:53.054Z,99.90
2018-05-06T10:51:21.784Z,99.90
2018-05-06T10:53:51.024Z,99.90
2018-05-06T10:56:19.548Z,99.90
2018-05-06T10:58:48.085Z,99.90
2018-05-06T11:01:16.665Z,99.90
2018-05-06T11:03:45.298Z,99.90
2018-05-06T11:06:14.729Z,99.90
2018-05-06T11:11:12.520Z,99.90
2018-05-06T11:13:41.813Z,99.90
2018-05-06T11:16:10.410Z,99.90
2018-05-06T11:18:39.449Z,99.90
2018-05-06T11:21:07.963Z,99.90
2018-05-06T11:23:36.499Z,99.90
2018-05-06T11:26:04.986Z,99.90
2018-05-06T11:28:33.496Z,99.90
2018-05-06T11:31:02.021Z,99.90
2018-05-06T11:33:31.278Z,99.90
2018-05-06T11:35:59.754Z,99.90
2018-05-06T11:38:28.261Z,99.90
2018-05-06T11:40:56.870Z,99.90
2018-05-06T11:43:25.502Z,99.90
2018-05-06T11:45:54.012Z,99.40
2018-05-06T11:48:22.552Z,98.00
2018-05-06T11:50:51.054Z,97.80
2018-05-06T11:53:19.545Z,98.10
2018-05-06T11:55:48.024Z,99.90
2018-05-06T11:58:16.554Z,99.90
2018-05-06T12:00:45.802Z,96.60
2018-05-06T12:03:14.372Z,96.60
2018-05-06T12:05:42.904Z,93.80
2018-05-06T12:08:11.423Z,93.90
2018-05-06T12:10:40.674Z,93.30
2018-05-06T12:13:09.256Z,93.30
2018-05-06T12:15:37.903Z,94.10
2018-05-06T12:18:06.400Z,91.80
2018-05-06T12:20:34.963Z,93.20
2018-05-06T12:23:03.210Z,92.50
2018-05-06T12:25:32.466Z,93.10
2018-05-06T12:28:00.977Z,93.20
2018-05-06T12:30:29.642Z,88.80
2018-05-06T12:32:58.121Z,84.10
2018-05-06T12:35:26.624Z,84.50
2018-05-06T12:37:55.541Z,85.80
2018-05-06T12:52:51.356Z,76.80
2018-05-06T12:55:20.322Z,78.70
2018-05-06T12:57:49.356Z,75.90
2018-05-06T13:00:18.680Z,77.60
2018-05-06T13:12:45.508Z,71.60
2018-05-06T13:15:14.013Z,72.10
2018-05-06T13:20:11.761Z,71.60
2018-05-06T13:22:40.262Z,71.20
2018-05-06T13:25:08.824Z,71.00
2018-05-06T13:27:37.323Z,73.70
2018-05-06T13:30:06.627Z,70.70
2018-05-06T13:32:34.900Z,72.80
2018-05-06T13:35:03.254Z,74.50
2018-05-06T13:42:30.791Z,69.80
2018-05-06T13:49:59.254Z,67.20
2018-05-06T13:52:28.183Z,64.40
2018-05-06T13:54:56.674Z,63.40
2018-05-06T13:59:54.453Z,62.70
2018-05-06T14:07:22.037Z,66.80
2018-05-06T15:02:16.382Z,55.90
2018-05-06T15:04:45.624Z,58.60
2018-05-06T15:07:14.179Z,55.90
2018-05-06T15:09:43.429Z,53.60
2018-05-06T15:12:13.102Z,54.00
2018-05-06T15:14:41.308Z,55.00
2018-05-06T15:17:10.588Z,55.70
2018-05-06T15:19:39.473Z,53.20
2018-05-06T15:22:08.341Z,53.10
2018-05-06T15:24:37.597Z,51.40
2018-05-06T15:27:06.491Z,54.10
2018-05-06T15:29:35.154Z,50.20
2018-05-06T15:32:03.624Z,51.20
2018-05-06T15:34:32.136Z,48.60
2018-05-06T15:37:00.655Z,50.80
2018-05-06T15:39:29.566Z,49.30
2018-05-06T15:41:58.505Z,49.80
2018-05-06T15:44:27.016Z,48.20
2018-05-06T15:46:55.538Z,51.00
2018-05-06T15:49:24.521Z,48.90
2018-05-06T15:51:53.449Z,51.00
2018-05-06T15:54:21.953Z,49.70
2018-05-06T15:56:50.510Z,48.40
2018-05-06T15:59:18.999Z,48.70
2018-05-06T16:01:58.856Z,48.40
2018-05-06T16:04:27.354Z,50.40
2018-05-06T16:06:57.041Z,49.90
2018-05-06T16:09:25.564Z,48.10
2018-05-06T16:11:54.330Z,51.10
2018-05-06T16:14:22.826Z,47.90
2018-05-06T16:16:51.551Z,48.60
2018-05-06T16:19:20.218Z,49.50
2018-05-06T16:21:49.464Z,49.40
2018-05-06T16:24:17.960Z,49.30
2018-05-06T16:26:46.518Z,48.20
2018-05-06T16:29:15.509Z,50.40
2018-05-06T16:31:44.422Z,48.20
2018-05-06T16:34:13.445Z,48.50
2018-05-06T16:36:42.363Z,50.10
2018-05-06T16:39:11.269Z,49.30
2018-05-06T16:41:40.517Z,48.70
2018-05-06T16:44:09.435Z,50.60
2018-05-06T16:46:37.588Z,47.90
2018-05-06T16:49:06.520Z,47.20
2018-05-06T16:51:35.429Z,47.20
2018-05-06T16:54:03.982Z,47.90
2018-05-06T16:56:32.443Z,47.50
2018-05-06T16:59:01.345Z,48.30
2018-05-06T17:01:30.589Z,47.20
2018-05-06T17:03:59.519Z,47.80
2018-05-06T17:06:28.387Z,48.10
2018-05-06T17:08:56.556Z,48.40
2018-05-06T17:11:25.038Z,47.20
2018-05-06T17:13:53.560Z,47.80
2018-05-06T17:16:21.689Z,48.60
2018-05-06T17:18:50.292Z,48.50
2018-05-06T17:21:18.850Z,48.80
2018-05-06T17:23:48.120Z,49.60
2018-05-06T17:26:17.892Z,50.20
2018-05-06T17:28:46.413Z,50.40
2018-05-06T17:31:14.905Z,50.50
2018-05-06T17:33:43.414Z,50.20
2018-05-06T17:36:12.295Z,50.70
2018-05-06T17:38:40.874Z,50.50
2018-05-06T17:41:10.143Z,51.10
2018-05-06T17:43:38.677Z,50.90
2018-05-06T17:46:07.602Z,52.50
2018-05-06T17:48:36.204Z,52.50
2018-05-06T17:51:04.709Z,50.90
2018-05-06T17:53:33.202Z,50.80
2018-05-06T17:56:01.501Z,51.90
2018-05-06T17:58:29.992Z,51.80
2018-05-06T18:00:58.477Z,50.90
2018-05-06T18:03:26.985Z,50.50
2018-05-06T18:05:56.392Z,51.30
2018-05-06T18:08:24.861Z,51.50
2018-05-06T18:10:53.349Z,52.10
2018-05-06T18:13:21.993Z,50.90
2018-05-06T18:15:51.269Z,50.10
2018-05-06T18:18:19.776Z,50.10
2018-05-06T18:20:48.809Z,49.30
2018-05-06T18:23:17.396Z,49.40
2018-05-06T18:25:45.897Z,49.80
2018-05-06T18:28:14.411Z,49.80
2018-05-06T18:30:42.924Z,49.00
2018-05-06T18:33:11.471Z,49.10
2018-05-06T18:35:40.053Z,46.90
2018-05-06T18:38:13.582Z,47.30
2018-05-06T18:40:42.869Z,48.70
2018-05-06T18:43:11.412Z,48.60
2018-05-06T18:45:39.898Z,48.60
2018-05-06T18:48:08.477Z,47.60
2018-05-06T18:50:36.649Z,48.50
2018-05-06T18:53:05.168Z,49.40
2018-05-06T18:55:33.693Z,48.20
2018-05-06T18:58:02.351Z,48.20
2018-05-06T19:00:30.888Z,48.40
2018-05-06T19:02:59.462Z,48.90
2018-05-06T19:05:28.042Z,48.80
2018-05-06T19:07:56.953Z,49.90
2018-05-06T19:10:25.459Z,47.80
2018-05-06T19:12:53.954Z,48.80
2018-05-06T19:15:22.493Z,48.00
2018-05-06T19:17:50.982Z,48.30
2018-05-06T19:20:19.698Z,48.80
2018-05-06T19:22:48.241Z,48.80
2018-05-06T19:25:16.782Z,49.90
2018-05-06T19:27:45.306Z,49.80
2018-05-06T19:30:13.585Z,50.60
2018-05-06T19:32:42.121Z,50.20
2018-05-06T19:35:10.955Z,49.40
2018-05-06T19:37:39.474Z,50.00
2018-05-06T19:40:08.095Z,50.50
2018-05-06T19:42:37.366Z,50.70
2018-05-06T19:45:05.920Z,50.10
2018-05-06T19:47:34.575Z,50.70
2018-05-06T19:50:03.840Z,51.60
2018-05-06T19:52:32.355Z,51.40
2018-05-06T19:55:01.617Z,52.50
2018-05-06T19:57:30.126Z,50.70
2018-05-06T20:00:00.135Z,52.50
2018-05-06T20:02:29.422Z,52.00
2018-05-06T20:04:57.919Z,51.90
2018-05-06T20:07:26.500Z,51.60
2018-05-06T20:09:55.266Z,52.00
2018-05-06T20:12:23.751Z,52.10
2018-05-06T20:14:52.448Z,51.50
2018-05-06T20:17:20.968Z,51.80
2018-05-06T20:19:50.250Z,51.60
2018-05-06T20:22:18.782Z,51.60
2018-05-06T20:24:47.274Z,52.50
2018-05-06T20:27:15.762Z,52.00
2018-05-06T20:29:44.391Z,51.70
2018-05-06T20:32:13.039Z,51.90
2018-05-06T20:34:41.636Z,52.40
2018-05-06T20:37:10.140Z,52.60
2018-05-06T20:39:38.856Z,53.00
2018-05-06T20:42:08.197Z,54.40
2018-05-06T20:44:36.921Z,54.70
2018-05-06T20:47:05.413Z,55.00
2018-05-06T20:49:34.701Z,56.50
2018-05-06T20:52:03.331Z,56.20
2018-05-06T20:54:31.824Z,56.80
2018-05-06T20:57:00.365Z,56.40
2018-05-06T20:59:28.860Z,53.70
2018-05-06T21:01:58.225Z,56.00
2018-05-06T21:04:26.734Z,55.30
2018-05-06T21:06:55.329Z,55.40
2018-05-06T21:09:24.624Z,56.80
2018-05-06T21:11:53.920Z,57.10
2018-05-06T21:14:23.195Z,58.30
2018-05-06T21:16:51.701Z,58.00
2018-05-06T21:19:21.720Z,58.90
2018-05-06T21:21:50.313Z,58.90
2018-05-06T21:24:19.697Z,61.60
2018-05-06T21:26:48.213Z,61.40
2018-05-06T21:29:17.457Z,62.50
2018-05-06T21:31:45.953Z,62.60
2018-05-06T21:34:14.473Z,63.10
2018-05-06T21:36:43.279Z,62.80
2018-05-06T21:39:12.016Z,64.80
2018-05-06T21:41:40.685Z,67.10
2018-05-06T21:44:09.207Z,67.80
2018-05-06T21:46:37.760Z,70.40
2018-05-06T21:49:05.928Z,72.70
2018-05-06T21:51:34.402Z,71.60
2018-05-06T21:54:02.250Z,72.30
2018-05-06T21:56:30.770Z,74.90
2018-05-06T21:58:59.429Z,76.30
2018-05-06T22:01:27.905Z,81.40
2018-05-06T22:03:56.508Z,93.00
2018-05-06T22:06:24.749Z,97.00
2018-05-06T22:08:54.106Z,96.70
2018-05-06T22:11:22.730Z,97.00
2018-05-06T22:13:51.994Z,96.90
2018-05-06T22:16:20.510Z,96.90
2018-05-06T22:18:49.793Z,99.60
2018-05-06T22:21:18.303Z,99.60
2018-05-06T22:23:47.758Z,99.90
2018-05-06T22:26:16.248Z,99.90
2018-05-06T22:28:44.759Z,99.90
2018-05-06T22:31:14.030Z,99.90
2018-05-06T22:33:42.529Z,99.90
2018-05-06T22:36:10.693Z,99.90
2018-05-06T22:38:39.469Z,99.90
2018-05-06T22:41:08.432Z,99.90
2018-05-06T22:43:37.389Z,99.90
